sensor_id;sensor_type;location;lat;lon;timestamp;temperature;humidity
16114;DHT22;8161;-33.910;151.156;2022-09-21T00:01:27;21.80;99.90
16114;DHT22;8161;-33.910;151.156;2022-09-21T00:03:57;21.90;99.90
16114;DHT22;8161;-33.910;151.156;2022-09-21T00:06:27;22.00;99.90
16114;DHT22;8161;-33.910;151.156;2022-09-21T00:08:55;22.00;99.90
16114;DHT22;8161;-33.910;151.156;2022-09-21T00:11:27;22.00;99.90
16114;DHT22;8161;-33.910;151.156;2022-09-21T00:13:57;22.20;99.90
16114;DHT22;8161;-33.910;151.156;2022-09-21T00:16:26;22.30;99.90
16114;DHT22;8161;-33.910;151.156;2022-09-21T00:18:54;22.40;99.90
16114;DHT22;8161;-33.910;151.156;2022-09-21T00:21:22;22.50;99.90
16114;DHT22;8161;-33.910;151.156;2022-09-21T00:23:49;22.50;99.90
16114;DHT22;8161;-33.910;151.156;2022-09-21T00:26:20;22.50;99.90
16114;DHT22;8161;-33.910;151.156;2022-09-21T00:28:55;22.50;99.90
16114;DHT22;8161;-33.910;151.156;2022-09-21T00:31:23;22.40;99.90
16114;DHT22;8161;-33.910;151.156;2022-09-21T00:33:51;22.30;99.90
16114;DHT22;8161;-33.910;151.156;2022-09-21T00:36:20;22.20;99.90
16114;DHT22;8161;-33.910;151.156;2022-09-21T00:38:53;22.10;99.90
16114;DHT22;8161;-33.910;151.156;2022-09-21T00:41:22;22.10;99.90
16114;DHT22;8161;-33.910;151.156;2022-09-21T00:46:43;22.00;99.90
16114;DHT22;8161;-33.910;151.156;2022-09-21T00:49:11;22.00;99.90
16114;DHT22;8161;-33.910;151.156;2022-09-21T00:51:39;21.90;99.90
16114;DHT22;8161;-33.910;151.156;2022-09-21T00:54:13;19.90;99.90
16114;DHT22;8161;-33.910;151.156;2022-09-21T00:56:42;21.80;99.90
16114;DHT22;8161;-33.910;151.156;2022-09-21T00:59:11;21.90;99.90
16114;DHT22;8161;-33.910;151.156;2022-09-21T01:01:40;22.00;99.90
16114;DHT22;8161;-33.910;151.156;2022-09-21T01:04:09;22.00;99.90
16114;DHT22;8161;-33.910;151.156;2022-09-21T01:06:37;22.10;99.90
16114;DHT22;8161;-33.910;151.156;2022-09-21T01:09:05;22.00;99.90
16114;DHT22;8161;-33.910;151.156;2022-09-21T01:14:24;21.90;99.90
16114;DHT22;8161;-33.910;151.156;2022-09-21T01:19:51;21.90;99.90
16114;DHT22;8161;-33.910;151.156;2022-09-21T01:25:26;21.80;99.90
16114;DHT22;8161;-33.910;151.156;2022-09-21T01:30:43;21.70;99.90
16114;DHT22;8161;-33.910;151.156;2022-09-21T01:33:16;21.60;99.90
16114;DHT22;8161;-33.910;151.156;2022-09-21T01:36:02;21.60;99.90
16114;DHT22;8161;-33.910;151.156;2022-09-21T01:38:39;21.60;99.90
16114;DHT22;8161;-33.910;151.156;2022-09-21T01:41:11;21.60;99.90
16114;DHT22;8161;-33.910;151.156;2022-09-21T01:43:42;21.50;99.90
16114;DHT22;8161;-33.910;151.156;2022-09-21T01:46:15;21.60;99.90
16114;DHT22;8161;-33.910;151.156;2022-09-21T01:48:47;23.60;99.90
16114;DHT22;8161;-33.910;151.156;2022-09-21T01:51:17;21.70;99.90
16114;DHT22;8161;-33.910;151.156;2022-09-21T01:53:54;21.60;99.90
16114;DHT22;8161;-33.910;151.156;2022-09-21T01:56:44;21.60;99.90
16114;DHT22;8161;-33.910;151.156;2022-09-21T01:59:21;21.60;99.90
16114;DHT22;8161;-33.910;151.156;2022-09-21T02:02:07;21.50;99.90
16114;DHT22;8161;-33.910;151.156;2022-09-21T02:04:35;21.40;99.90
16114;DHT22;8161;-33.910;151.156;2022-09-21T02:07:05;21.40;99.90
16114;DHT22;8161;-33.910;151.156;2022-09-21T02:09:34;21.50;99.90
16114;DHT22;8161;-33.910;151.156;2022-09-21T02:12:03;21.40;99.90
16114;DHT22;8161;-33.910;151.156;2022-09-21T02:14:32;21.30;99.90
16114;DHT22;8161;-33.910;151.156;2022-09-21T02:20:13;21.40;99.90
16114;DHT22;8161;-33.910;151.156;2022-09-21T02:28:07;21.50;99.90
16114;DHT22;8161;-33.910;151.156;2022-09-21T02:30:40;21.50;99.90
16114;DHT22;8161;-33.910;151.156;2022-09-21T02:36:26;21.70;99.90
16114;DHT22;8161;-33.910;151.156;2022-09-21T02:39:20;21.70;99.90
16114;DHT22;8161;-33.910;151.156;2022-09-21T02:42:09;21.90;99.90
16114;DHT22;8161;-33.910;151.156;2022-09-21T02:44:43;21.90;99.90
16114;DHT22;8161;-33.910;151.156;2022-09-21T02:47:23;22.00;99.90
16114;DHT22;8161;-33.910;151.156;2022-09-21T02:49:57;22.00;99.90
16114;DHT22;8161;-33.910;151.156;2022-09-21T02:52:28;22.10;99.90
16114;DHT22;8161;-33.910;151.156;2022-09-21T02:54:58;22.00;99.90
16114;DHT22;8161;-33.910;151.156;2022-09-21T02:57:26;22.00;99.90
16114;DHT22;8161;-33.910;151.156;2022-09-21T02:59:54;22.00;99.90
16114;DHT22;8161;-33.910;151.156;2022-09-21T03:02:21;22.00;99.90
16114;DHT22;8161;-33.910;151.156;2022-09-21T03:04:48;22.00;99.90
16114;DHT22;8161;-33.910;151.156;2022-09-21T03:07:16;22.00;99.90
16114;DHT22;8161;-33.910;151.156;2022-09-21T03:09:44;22.00;99.90
16114;DHT22;8161;-33.910;151.156;2022-09-21T03:12:12;22.00;99.90
16114;DHT22;8161;-33.910;151.156;2022-09-21T03:14:39;21.90;99.90
16114;DHT22;8161;-33.910;151.156;2022-09-21T03:17:06;21.90;99.90
16114;DHT22;8161;-33.910;151.156;2022-09-21T03:19:34;21.80;99.90
16114;DHT22;8161;-33.910;151.156;2022-09-21T03:22:02;21.70;99.90
16114;DHT22;8161;-33.910;151.156;2022-09-21T03:24:29;21.70;99.90
16114;DHT22;8161;-33.910;151.156;2022-09-21T03:27:11;21.70;99.90
16114;DHT22;8161;-33.910;151.156;2022-09-21T03:29:38;21.70;99.90
16114;DHT22;8161;-33.910;151.156;2022-09-21T03:32:05;21.60;99.90
16114;DHT22;8161;-33.910;151.156;2022-09-21T03:34:33;21.60;99.90
16114;DHT22;8161;-33.910;151.156;2022-09-21T03:37:04;22.80;99.90
16114;DHT22;8161;-33.910;151.156;2022-09-21T03:39:32;21.40;99.90
16114;DHT22;8161;-33.910;151.156;2022-09-21T03:41:59;21.40;99.90
16114;DHT22;8161;-33.910;151.156;2022-09-21T03:44:27;21.40;99.90
16114;DHT22;8161;-33.910;151.156;2022-09-21T03:46:55;21.50;99.90
16114;DHT22;8161;-33.910;151.156;2022-09-21T03:49:23;21.50;99.90
16114;DHT22;8161;-33.910;151.156;2022-09-21T03:51:51;21.50;99.90
16114;DHT22;8161;-33.910;151.156;2022-09-21T03:54:18;21.40;99.90
16114;DHT22;8161;-33.910;151.156;2022-09-21T03:56:45;21.40;99.90
16114;DHT22;8161;-33.910;151.156;2022-09-21T03:59:13;21.40;99.90
16114;DHT22;8161;-33.910;151.156;2022-09-21T04:01:41;21.30;99.90
16114;DHT22;8161;-33.910;151.156;2022-09-21T04:04:08;21.30;99.90
16114;DHT22;8161;-33.910;151.156;2022-09-21T04:06:36;21.30;99.90
16114;DHT22;8161;-33.910;151.156;2022-09-21T04:09:03;21.20;99.90
16114;DHT22;8161;-33.910;151.156;2022-09-21T04:11:30;21.20;99.90
16114;DHT22;8161;-33.910;151.156;2022-09-21T04:13:59;21.10;99.90
16114;DHT22;8161;-33.910;151.156;2022-09-21T04:16:26;21.10;99.90
16114;DHT22;8161;-33.910;151.156;2022-09-21T04:18:54;21.10;99.90
16114;DHT22;8161;-33.910;151.156;2022-09-21T04:21:21;21.10;99.90
16114;DHT22;8161;-33.910;151.156;2022-09-21T04:23:52;21.00;99.90
16114;DHT22;8161;-33.910;151.156;2022-09-21T04:26:25;21.00;99.90
16114;DHT22;8161;-33.910;151.156;2022-09-21T04:28:53;20.90;99.90
16114;DHT22;8161;-33.910;151.156;2022-09-21T04:31:22;20.90;99.90
16114;DHT22;8161;-33.910;151.156;2022-09-21T04:33:54;20.90;99.90
16114;DHT22;8161;-33.910;151.156;2022-09-21T04:36:23;20.90;99.90
16114;DHT22;8161;-33.910;151.156;2022-09-21T04:38:51;20.80;99.90
16114;DHT22;8161;-33.910;151.156;2022-09-21T04:41:18;20.80;99.90
16114;DHT22;8161;-33.910;151.156;2022-09-21T04:43:47;20.70;99.90
16114;DHT22;8161;-33.910;151.156;2022-09-21T04:46:16;20.70;99.90
16114;DHT22;8161;-33.910;151.156;2022-09-21T04:48:44;20.70;99.90
16114;DHT22;8161;-33.910;151.156;2022-09-21T04:51:13;20.80;99.90
16114;DHT22;8161;-33.910;151.156;2022-09-21T04:53:41;20.80;99.90
16114;DHT22;8161;-33.910;151.156;2022-09-21T04:56:12;20.90;99.90
16114;DHT22;8161;-33.910;151.156;2022-09-21T04:58:39;22.90;99.90
16114;DHT22;8161;-33.910;151.156;2022-09-21T05:01:07;20.80;99.90
16114;DHT22;8161;-33.910;151.156;2022-09-21T05:03:34;20.70;99.90
16114;DHT22;8161;-33.910;151.156;2022-09-21T05:06:02;20.70;99.90
16114;DHT22;8161;-33.910;151.156;2022-09-21T05:08:29;20.70;99.90
16114;DHT22;8161;-33.910;151.156;2022-09-21T05:11:11;20.70;99.90
16114;DHT22;8161;-33.910;151.156;2022-09-21T05:13:48;20.60;99.90
16114;DHT22;8161;-33.910;151.156;2022-09-21T05:16:16;20.60;99.90
16114;DHT22;8161;-33.910;151.156;2022-09-21T05:18:44;20.60;99.90
16114;DHT22;8161;-33.910;151.156;2022-09-21T05:21:12;20.60;99.90
16114;DHT22;8161;-33.910;151.156;2022-09-21T05:23:40;20.60;99.90
16114;DHT22;8161;-33.910;151.156;2022-09-21T05:26:08;20.50;99.90
16114;DHT22;8161;-33.910;151.156;2022-09-21T05:28:35;20.40;99.90
16114;DHT22;8161;-33.910;151.156;2022-09-21T05:34:02;20.40;99.90
16114;DHT22;8161;-33.910;151.156;2022-09-21T05:39:08;20.30;99.90
16114;DHT22;8161;-33.910;151.156;2022-09-21T05:41:37;20.30;99.90
16114;DHT22;8161;-33.910;151.156;2022-09-21T05:44:04;20.20;99.90
16114;DHT22;8161;-33.910;151.156;2022-09-21T05:47:01;20.30;99.90
16114;DHT22;8161;-33.910;151.156;2022-09-21T06:03:47;20.10;99.90
16114;DHT22;8161;-33.910;151.156;2022-09-21T06:06:19;20.10;99.90
16114;DHT22;8161;-33.910;151.156;2022-09-21T06:08:46;20.10;99.90
16114;DHT22;8161;-33.910;151.156;2022-09-21T06:11:14;20.10;99.90
16114;DHT22;8161;-33.910;151.156;2022-09-21T06:13:41;20.10;99.90
16114;DHT22;8161;-33.910;151.156;2022-09-21T06:16:09;20.10;99.90
16114;DHT22;8161;-33.910;151.156;2022-09-21T06:18:37;20.10;99.90
16114;DHT22;8161;-33.910;151.156;2022-09-21T06:21:06;20.10;99.90
16114;DHT22;8161;-33.910;151.156;2022-09-21T06:23:33;20.10;99.90
16114;DHT22;8161;-33.910;151.156;2022-09-21T06:26:01;20.10;99.90
16114;DHT22;8161;-33.910;151.156;2022-09-21T06:28:28;20.10;99.90
16114;DHT22;8161;-33.910;151.156;2022-09-21T06:30:56;20.10;99.90
16114;DHT22;8161;-33.910;151.156;2022-09-21T06:33:24;20.10;99.90
16114;DHT22;8161;-33.910;151.156;2022-09-21T06:35:56;20.10;99.90
16114;DHT22;8161;-33.910;151.156;2022-09-21T06:38:26;20.10;99.90
16114;DHT22;8161;-33.910;151.156;2022-09-21T06:40:53;20.10;99.90
16114;DHT22;8161;-33.910;151.156;2022-09-21T06:43:21;20.10;99.90
16114;DHT22;8161;-33.910;151.156;2022-09-21T06:45:57;20.10;99.90
16114;DHT22;8161;-33.910;151.156;2022-09-21T06:48:25;20.00;99.90
16114;DHT22;8161;-33.910;151.156;2022-09-21T06:51:00;20.00;99.90
16114;DHT22;8161;-33.910;151.156;2022-09-21T06:53:30;20.00;99.90
16114;DHT22;8161;-33.910;151.156;2022-09-21T06:56:05;20.00;99.90
16114;DHT22;8161;-33.910;151.156;2022-09-21T06:58:34;20.00;99.90
16114;DHT22;8161;-33.910;151.156;2022-09-21T07:01:10;20.00;99.90
16114;DHT22;8161;-33.910;151.156;2022-09-21T07:03:38;20.00;99.90
16114;DHT22;8161;-33.910;151.156;2022-09-21T07:06:07;20.00;99.90
16114;DHT22;8161;-33.910;151.156;2022-09-21T07:08:37;20.00;99.90
16114;DHT22;8161;-33.910;151.156;2022-09-21T07:11:05;19.90;99.90
16114;DHT22;8161;-33.910;151.156;2022-09-21T07:13:33;20.00;99.90
16114;DHT22;8161;-33.910;151.156;2022-09-21T07:16:07;19.90;99.90
16114;DHT22;8161;-33.910;151.156;2022-09-21T07:18:36;19.90;99.90
16114;DHT22;8161;-33.910;151.156;2022-09-21T07:21:06;19.90;99.90
16114;DHT22;8161;-33.910;151.156;2022-09-21T07:23:34;19.90;99.90
16114;DHT22;8161;-33.910;151.156;2022-09-21T07:26:07;19.90;99.90
16114;DHT22;8161;-33.910;151.156;2022-09-21T07:28:35;19.90;99.90
16114;DHT22;8161;-33.910;151.156;2022-09-21T07:31:07;19.90;99.90
16114;DHT22;8161;-33.910;151.156;2022-09-21T07:33:35;19.90;99.90
16114;DHT22;8161;-33.910;151.156;2022-09-21T07:36:03;19.90;99.90
16114;DHT22;8161;-33.910;151.156;2022-09-21T07:38:42;19.90;99.90
16114;DHT22;8161;-33.910;151.156;2022-09-21T07:41:11;19.80;99.90
16114;DHT22;8161;-33.910;151.156;2022-09-21T07:43:39;19.80;99.90
16114;DHT22;8161;-33.910;151.156;2022-09-21T07:46:08;19.80;99.90
16114;DHT22;8161;-33.910;151.156;2022-09-21T07:48:36;19.80;99.90
16114;DHT22;8161;-33.910;151.156;2022-09-21T07:51:05;19.80;99.90
16114;DHT22;8161;-33.910;151.156;2022-09-21T07:53:33;19.80;99.90
16114;DHT22;8161;-33.910;151.156;2022-09-21T07:56:06;19.80;99.90
16114;DHT22;8161;-33.910;151.156;2022-09-21T07:58:35;19.80;99.90
16114;DHT22;8161;-33.910;151.156;2022-09-21T08:01:16;19.70;99.90
16114;DHT22;8161;-33.910;151.156;2022-09-21T08:03:44;19.80;99.90
16114;DHT22;8161;-33.910;151.156;2022-09-21T08:06:11;19.80;99.90
16114;DHT22;8161;-33.910;151.156;2022-09-21T08:08:38;19.80;99.90
16114;DHT22;8161;-33.910;151.156;2022-09-21T08:11:07;19.80;99.90
16114;DHT22;8161;-33.910;151.156;2022-09-21T08:13:37;19.70;99.90
16114;DHT22;8161;-33.910;151.156;2022-09-21T08:16:04;19.70;99.90
16114;DHT22;8161;-33.910;151.156;2022-09-21T08:18:35;19.70;99.90
16114;DHT22;8161;-33.910;151.156;2022-09-21T08:21:02;19.70;99.90
16114;DHT22;8161;-33.910;151.156;2022-09-21T08:23:29;19.70;99.90
16114;DHT22;8161;-33.910;151.156;2022-09-21T08:26:01;19.70;99.90
16114;DHT22;8161;-33.910;151.156;2022-09-21T08:28:29;19.60;99.90
16114;DHT22;8161;-33.910;151.156;2022-09-21T08:31:06;19.60;99.90
16114;DHT22;8161;-33.910;151.156;2022-09-21T08:33:34;19.70;99.90
16114;DHT22;8161;-33.910;151.156;2022-09-21T08:36:02;19.60;99.90
16114;DHT22;8161;-33.910;151.156;2022-09-21T08:38:35;19.60;99.90
16114;DHT22;8161;-33.910;151.156;2022-09-21T08:41:14;19.60;99.90
16114;DHT22;8161;-33.910;151.156;2022-09-21T08:43:45;19.60;99.90
16114;DHT22;8161;-33.910;151.156;2022-09-21T08:46:23;19.70;99.90
16114;DHT22;8161;-33.910;151.156;2022-09-21T08:49:21;19.70;99.90
16114;DHT22;8161;-33.910;151.156;2022-09-21T08:51:53;19.60;99.90
16114;DHT22;8161;-33.910;151.156;2022-09-21T08:54:33;19.60;99.90
16114;DHT22;8161;-33.910;151.156;2022-09-21T08:57:01;19.60;99.90
16114;DHT22;8161;-33.910;151.156;2022-09-21T08:59:28;19.60;99.90
16114;DHT22;8161;-33.910;151.156;2022-09-21T09:07:31;19.60;99.90
16114;DHT22;8161;-33.910;151.156;2022-09-21T09:12:55;19.50;99.90
16114;DHT22;8161;-33.910;151.156;2022-09-21T09:15:33;20.40;99.90
16114;DHT22;8161;-33.910;151.156;2022-09-21T09:20:48;19.50;99.90
16114;DHT22;8161;-33.910;151.156;2022-09-21T09:28:46;19.50;99.90
16114;DHT22;8161;-33.910;151.156;2022-09-21T09:31:28;19.50;99.90
16114;DHT22;8161;-33.910;151.156;2022-09-21T09:36:55;19.50;99.90
16114;DHT22;8161;-33.910;151.156;2022-09-21T09:39:24;19.50;99.90
16114;DHT22;8161;-33.910;151.156;2022-09-21T09:50:30;19.50;99.90
16114;DHT22;8161;-33.910;151.156;2022-09-21T09:53:11;19.50;99.90
16114;DHT22;8161;-33.910;151.156;2022-09-21T09:55:45;19.50;99.90
16114;DHT22;8161;-33.910;151.156;2022-09-21T09:58:22;19.50;99.90
16114;DHT22;8161;-33.910;151.156;2022-09-21T10:00:54;19.50;99.90
16114;DHT22;8161;-33.910;151.156;2022-09-21T10:03:23;19.50;99.90
16114;DHT22;8161;-33.910;151.156;2022-09-21T10:05:51;19.50;99.90
16114;DHT22;8161;-33.910;151.156;2022-09-21T10:11:05;19.40;99.90
16114;DHT22;8161;-33.910;151.156;2022-09-21T10:13:37;19.40;99.90
16114;DHT22;8161;-33.910;151.156;2022-09-21T10:16:20;19.40;99.90
16114;DHT22;8161;-33.910;151.156;2022-09-21T10:18:57;19.40;99.90
16114;DHT22;8161;-33.910;151.156;2022-09-21T10:21:36;19.40;99.90
16114;DHT22;8161;-33.910;151.156;2022-09-21T10:26:54;19.40;99.90
16114;DHT22;8161;-33.910;151.156;2022-09-21T10:31:55;19.40;99.90
16114;DHT22;8161;-33.910;151.156;2022-09-21T10:34:24;19.40;99.90
16114;DHT22;8161;-33.910;151.156;2022-09-21T10:36:55;19.40;99.90
16114;DHT22;8161;-33.910;151.156;2022-09-21T10:39:26;19.40;99.90
16114;DHT22;8161;-33.910;151.156;2022-09-21T10:42:02;19.40;99.90
16114;DHT22;8161;-33.910;151.156;2022-09-21T10:44:38;19.40;99.90
16114;DHT22;8161;-33.910;151.156;2022-09-21T10:47:21;19.30;99.90
16114;DHT22;8161;-33.910;151.156;2022-09-21T10:49:52;19.40;99.90
16114;DHT22;8161;-33.910;151.156;2022-09-21T10:52:23;19.40;99.90
16114;DHT22;8161;-33.910;151.156;2022-09-21T10:54:54;19.30;99.90
16114;DHT22;8161;-33.910;151.156;2022-09-21T10:57:23;19.40;99.90
16114;DHT22;8161;-33.910;151.156;2022-09-21T10:59:51;19.30;99.90
16114;DHT22;8161;-33.910;151.156;2022-09-21T11:02:34;19.30;99.90
16114;DHT22;8161;-33.910;151.156;2022-09-21T11:05:20;19.40;99.90
16114;DHT22;8161;-33.910;151.156;2022-09-21T11:13:32;19.40;99.90
16114;DHT22;8161;-33.910;151.156;2022-09-21T11:16:14;19.30;99.90
16114;DHT22;8161;-33.910;151.156;2022-09-21T11:21:46;19.30;99.90
16114;DHT22;8161;-33.910;151.156;2022-09-21T11:24:37;19.30;99.90
16114;DHT22;8161;-33.910;151.156;2022-09-21T11:41:17;19.30;99.90
16114;DHT22;8161;-33.910;151.156;2022-09-21T11:49:43;19.20;99.90
16114;DHT22;8161;-33.910;151.156;2022-09-21T12:06:15;19.20;99.90
16114;DHT22;8161;-33.910;151.156;2022-09-21T12:08:57;19.20;99.90
16114;DHT22;8161;-33.910;151.156;2022-09-21T12:25:03;19.10;99.90
16114;DHT22;8161;-33.910;151.156;2022-09-21T12:30:24;19.00;99.90
16114;DHT22;8161;-33.910;151.156;2022-09-21T12:43:38;18.90;99.90
16114;DHT22;8161;-33.910;151.156;2022-09-21T12:46:37;18.90;99.90
16114;DHT22;8161;-33.910;151.156;2022-09-21T12:49:16;18.80;99.90
16114;DHT22;8161;-33.910;151.156;2022-09-21T12:51:51;18.80;99.90
16114;DHT22;8161;-33.910;151.156;2022-09-21T12:54:38;18.70;99.90
16114;DHT22;8161;-33.910;151.156;2022-09-21T12:57:32;18.70;99.90
16114;DHT22;8161;-33.910;151.156;2022-09-21T13:00:02;18.70;99.90
16114;DHT22;8161;-33.910;151.156;2022-09-21T13:05:19;18.70;99.90
16114;DHT22;8161;-33.910;151.156;2022-09-21T13:10:38;18.80;99.90
16114;DHT22;8161;-33.910;151.156;2022-09-21T13:13:17;18.80;99.90
16114;DHT22;8161;-33.910;151.156;2022-09-21T13:15:47;18.80;99.90
16114;DHT22;8161;-33.910;151.156;2022-09-21T13:18:37;18.80;99.90
16114;DHT22;8161;-33.910;151.156;2022-09-21T13:21:19;18.80;99.90
16114;DHT22;8161;-33.910;151.156;2022-09-21T13:23:56;18.80;99.90
16114;DHT22;8161;-33.910;151.156;2022-09-21T13:26:38;18.80;99.90
16114;DHT22;8161;-33.910;151.156;2022-09-21T13:34:38;18.70;99.90
16114;DHT22;8161;-33.910;151.156;2022-09-21T13:45:05;18.70;99.90
16114;DHT22;8161;-33.910;151.156;2022-09-21T13:47:54;18.70;99.90
16114;DHT22;8161;-33.910;151.156;2022-09-21T13:50:40;18.70;99.90
16114;DHT22;8161;-33.910;151.156;2022-09-21T13:56:30;18.60;99.90
16114;DHT22;8161;-33.910;151.156;2022-09-21T13:58:59;18.60;99.90
16114;DHT22;8161;-33.910;151.156;2022-09-21T14:01:34;18.60;99.90
16114;DHT22;8161;-33.910;151.156;2022-09-21T14:06:47;18.70;99.90
16114;DHT22;8161;-33.910;151.156;2022-09-21T14:09:33;18.60;99.90
16114;DHT22;8161;-33.910;151.156;2022-09-21T14:12:09;18.60;99.90
16114;DHT22;8161;-33.910;151.156;2022-09-21T14:14:43;18.60;99.90
16114;DHT22;8161;-33.910;151.156;2022-09-21T14:17:36;18.60;99.90
16114;DHT22;8161;-33.910;151.156;2022-09-21T14:20:05;18.60;99.90
16114;DHT22;8161;-33.910;151.156;2022-09-21T14:25:51;18.50;99.90
16114;DHT22;8161;-33.910;151.156;2022-09-21T14:28:43;18.50;99.90
16114;DHT22;8161;-33.910;151.156;2022-09-21T14:31:30;18.50;99.90
16114;DHT22;8161;-33.910;151.156;2022-09-21T14:34:02;18.50;99.90
16114;DHT22;8161;-33.910;151.156;2022-09-21T14:36:38;18.50;99.90
16114;DHT22;8161;-33.910;151.156;2022-09-21T14:39:19;18.50;99.90
16114;DHT22;8161;-33.910;151.156;2022-09-21T14:41:50;18.50;99.90
16114;DHT22;8161;-33.910;151.156;2022-09-21T14:44:24;18.50;99.90
16114;DHT22;8161;-33.910;151.156;2022-09-21T14:55:30;18.50;99.90
16114;DHT22;8161;-33.910;151.156;2022-09-21T15:00:44;18.50;99.90
16114;DHT22;8161;-33.910;151.156;2022-09-21T15:06:14;18.50;99.90
16114;DHT22;8161;-33.910;151.156;2022-09-21T15:12:15;18.40;99.90
16114;DHT22;8161;-33.910;151.156;2022-09-21T15:14:50;18.40;99.90
16114;DHT22;8161;-33.910;151.156;2022-09-21T15:17:26;18.40;99.90
16114;DHT22;8161;-33.910;151.156;2022-09-21T15:19:59;18.40;99.90
16114;DHT22;8161;-33.910;151.156;2022-09-21T15:22:43;18.40;99.90
16114;DHT22;8161;-33.910;151.156;2022-09-21T15:25:13;18.40;99.90
16114;DHT22;8161;-33.910;151.156;2022-09-21T15:27:44;18.40;99.90
16114;DHT22;8161;-33.910;151.156;2022-09-21T15:30:24;18.40;99.90
16114;DHT22;8161;-33.910;151.156;2022-09-21T15:33:00;18.50;99.90
16114;DHT22;8161;-33.910;151.156;2022-09-21T15:35:31;18.40;99.90
16114;DHT22;8161;-33.910;151.156;2022-09-21T15:38:00;18.40;99.90
16114;DHT22;8161;-33.910;151.156;2022-09-21T15:40:33;18.40;99.90
16114;DHT22;8161;-33.910;151.156;2022-09-21T15:43:04;18.30;99.90
16114;DHT22;8161;-33.910;151.156;2022-09-21T15:48:31;18.30;99.90
16114;DHT22;8161;-33.910;151.156;2022-09-21T15:51:32;18.30;99.90
16114;DHT22;8161;-33.910;151.156;2022-09-21T15:54:26;18.30;99.90
16114;DHT22;8161;-33.910;151.156;2022-09-21T15:56:59;18.30;99.90
16114;DHT22;8161;-33.910;151.156;2022-09-21T15:59:27;18.30;99.90
16114;DHT22;8161;-33.910;151.156;2022-09-21T16:01:58;18.30;99.90
16114;DHT22;8161;-33.910;151.156;2022-09-21T16:04:27;18.30;99.90
16114;DHT22;8161;-33.910;151.156;2022-09-21T16:07:06;18.40;99.90
16114;DHT22;8161;-33.910;151.156;2022-09-21T16:09:42;18.40;99.90
16114;DHT22;8161;-33.910;151.156;2022-09-21T16:12:31;18.30;99.90
16114;DHT22;8161;-33.910;151.156;2022-09-21T16:15:46;17.60;99.90
16114;DHT22;8161;-33.910;151.156;2022-09-21T16:18:03;18.20;99.90
16114;DHT22;8161;-33.910;151.156;2022-09-21T16:20:45;18.10;99.90
16114;DHT22;8161;-33.910;151.156;2022-09-21T16:23:23;18.10;99.90
16114;DHT22;8161;-33.910;151.156;2022-09-21T16:25:57;18.10;99.90
16114;DHT22;8161;-33.910;151.156;2022-09-21T16:28:40;18.10;99.90
16114;DHT22;8161;-33.910;151.156;2022-09-21T16:38:45;18.10;99.90
16114;DHT22;8161;-33.910;151.156;2022-09-21T16:41:13;18.00;99.90
16114;DHT22;8161;-33.910;151.156;2022-09-21T16:43:40;18.00;99.90
16114;DHT22;8161;-33.910;151.156;2022-09-21T16:46:10;18.00;99.90
16114;DHT22;8161;-33.910;151.156;2022-09-21T16:48:38;18.00;99.90
16114;DHT22;8161;-33.910;151.156;2022-09-21T16:51:18;18.00;99.90
16114;DHT22;8161;-33.910;151.156;2022-09-21T16:53:50;18.00;99.90
16114;DHT22;8161;-33.910;151.156;2022-09-21T16:56:18;18.00;99.90
16114;DHT22;8161;-33.910;151.156;2022-09-21T16:58:45;18.00;99.90
16114;DHT22;8161;-33.910;151.156;2022-09-21T17:01:14;18.10;99.90
16114;DHT22;8161;-33.910;151.156;2022-09-21T17:03:43;18.00;99.90
16114;DHT22;8161;-33.910;151.156;2022-09-21T17:06:20;17.90;99.90
16114;DHT22;8161;-33.910;151.156;2022-09-21T17:08:48;17.80;99.90
16114;DHT22;8161;-33.910;151.156;2022-09-21T17:11:17;17.80;99.90
16114;DHT22;8161;-33.910;151.156;2022-09-21T17:13:49;17.70;99.90
16114;DHT22;8161;-33.910;151.156;2022-09-21T17:16:17;17.70;99.90
16114;DHT22;8161;-33.910;151.156;2022-09-21T17:18:46;17.70;99.90
16114;DHT22;8161;-33.910;151.156;2022-09-21T17:21:15;17.70;99.90
16114;DHT22;8161;-33.910;151.156;2022-09-21T17:23:42;17.70;99.90
16114;DHT22;8161;-33.910;151.156;2022-09-21T17:26:13;17.70;99.90
16114;DHT22;8161;-33.910;151.156;2022-09-21T17:28:45;17.80;99.90
16114;DHT22;8161;-33.910;151.156;2022-09-21T17:31:13;17.80;99.90
16114;DHT22;8161;-33.910;151.156;2022-09-21T17:33:42;17.80;99.90
16114;DHT22;8161;-33.910;151.156;2022-09-21T17:36:13;17.80;99.90
16114;DHT22;8161;-33.910;151.156;2022-09-21T17:38:41;17.90;99.90
16114;DHT22;8161;-33.910;151.156;2022-09-21T17:43:44;17.90;99.90
16114;DHT22;8161;-33.910;151.156;2022-09-21T17:49:02;17.90;99.90
16114;DHT22;8161;-33.910;151.156;2022-09-21T17:51:30;17.90;99.90
16114;DHT22;8161;-33.910;151.156;2022-09-21T17:54:10;18.00;99.90
16114;DHT22;8161;-33.910;151.156;2022-09-21T17:56:50;18.00;99.90
16114;DHT22;8161;-33.910;151.156;2022-09-21T17:59:28;18.00;99.90
16114;DHT22;8161;-33.910;151.156;2022-09-21T18:01:57;18.00;99.90
16114;DHT22;8161;-33.910;151.156;2022-09-21T18:04:27;18.00;99.90
16114;DHT22;8161;-33.910;151.156;2022-09-21T18:06:56;17.90;99.90
16114;DHT22;8161;-33.910;151.156;2022-09-21T18:09:23;17.90;99.90
16114;DHT22;8161;-33.910;151.156;2022-09-21T18:12:13;18.00;99.90
16114;DHT22;8161;-33.910;151.156;2022-09-21T18:23:27;17.90;99.90
16114;DHT22;8161;-33.910;151.156;2022-09-21T18:25:57;17.80;99.90
16114;DHT22;8161;-33.910;151.156;2022-09-21T18:28:41;17.80;99.90
16114;DHT22;8161;-33.910;151.156;2022-09-21T18:34:03;17.80;99.90
16114;DHT22;8161;-33.910;151.156;2022-09-21T18:36:51;17.80;99.90
16114;DHT22;8161;-33.910;151.156;2022-09-21T18:45:39;17.70;99.90
16114;DHT22;8161;-33.910;151.156;2022-09-21T18:56:11;17.70;99.90
16114;DHT22;8161;-33.910;151.156;2022-09-21T18:58:39;17.70;99.90
16114;DHT22;8161;-33.910;151.156;2022-09-21T19:01:11;17.60;99.90
16114;DHT22;8161;-33.910;151.156;2022-09-21T19:03:39;17.50;99.90
16114;DHT22;8161;-33.910;151.156;2022-09-21T19:11:58;17.30;99.90
16114;DHT22;8161;-33.910;151.156;2022-09-21T19:20:21;17.30;99.90
16114;DHT22;8161;-33.910;151.156;2022-09-21T19:23:03;17.30;99.90
16114;DHT22;8161;-33.910;151.156;2022-09-21T19:25:49;17.30;99.90
16114;DHT22;8161;-33.910;151.156;2022-09-21T19:30:45;17.20;99.90
16114;DHT22;8161;-33.910;151.156;2022-09-21T19:33:26;17.20;99.90
16114;DHT22;8161;-33.910;151.156;2022-09-21T19:35:55;17.20;99.90
16114;DHT22;8161;-33.910;151.156;2022-09-21T19:38:22;17.30;99.90
16114;DHT22;8161;-33.910;151.156;2022-09-21T19:40:53;17.30;99.90
16114;DHT22;8161;-33.910;151.156;2022-09-21T19:43:39;17.30;99.90
16114;DHT22;8161;-33.910;151.156;2022-09-21T19:46:23;17.30;99.90
16114;DHT22;8161;-33.910;151.156;2022-09-21T19:48:54;17.30;99.90